KGVE

Details ICAO KGVE
Name Gordonsville Municipal
Region United States
Timezone America/New_York (UTC-4.0)
Plans Departing 0
Arriving 0
Stats Elevation 454 ft / 138 m (AMSL)
Location 38.155987° -78.165775°
Runways 1
Magnetic Variation 10.010° W
Sunrise 2018-05-23 09:57:23 UTC / 2018-05-23 05:57:23 Local
Sunset 2018-05-24 00:24:21 UTC / 2018-05-23 20:24:21 Local
Advertisement - Login to hide

Runways

ID Width Length Bearing (true) Bearing (mag) Surface Threshold Offset Overrun Length
05 40 ft / 12 m 2,301 ft / 701 m 37.84° 47.85° Asphalt 0 ft / 0 m 0 ft / 0 m
23 40 ft / 12 m 2,301 ft / 701 m 217.84° 227.85° Asphalt 0 ft / 0 m 0 ft / 0 m

Map

Weather


0- 5 10 15 20 25 30 35+ Temperature / ° C

Clouds and Precipitation
Forecast for 2018-05-23 18:00 UTC. Updated 6 hours ago

Ground ~20,000 ft ~40,000 ft Winds

METAR

KGVE 232315Z AUTO 04008KT 10SM CLR 26/17 A3002 RMK AO1 T02620168

TAF

Not found
Warning: Do not use this data for real-world aviation or navigation. No guarantee of current accuracy is given.